This is the latest recevied weather packets stored in our database for station/object DM0MR. If no packets are shown the sender has not sent any weather packets the latest 1 day(s).
| Time | Temp. | Humidity | Pressure | Rain* | Wind** | Luminosity | Snow |
|---|---|---|---|---|---|---|---|
| 1836274698 | 12.22° C | 96% | 1016.3 hPa | 0 mm | 0 m/s | - | - |
| 1836274401 | 12.78° C | 96% | 1016.5 hPa | 0 mm | 0 m/s | - | - |
| 1836274248 | 12.22° C | 96% | 1016.3 hPa | 0 mm | 0 m/s | - | - |
| 1836274098 | 12.78° C | 96% | 1016.6 hPa | 0 mm | 0 m/s | - | - |
| 1778027202 | 12.78° C | 99% | 994.9 hPa | 5.84 mm | 0 m/s | - | - |
| 1778026301 | 13.33° C | 99% | 994.8 hPa | 5.08 mm | 0 m/s | - | - |
| 1778025399 | 13.33° C | 99% | 995.1 hPa | 3.81 mm | 0 m/s | - | - |
| 1778024503 | 13.33° C | 99% | 995 hPa | 1.78 mm | 0 m/s | - | - |
| 1778023599 | 13.89° C | 99% | 995.1 hPa | 2.03 mm | 0 m/s | - | - |
| 1778020903 | 13.89° C | 99% | 995.3 hPa | 2.79 mm | 0 m/s | - | - |
| 1778020000 | 13.89° C | 99% | 995.4 hPa | 2.29 mm | 0 m/s | - | - |
| 1778019101 | 13.89° C | 99% | 995.3 hPa | 2.29 mm | 0 m/s | - | - |
| 1778017300 | 14.44° C | 99% | 995.6 hPa | 2.03 mm | 0 m/s | - | - |
| 1778015499 | 14.44° C | 97% | 995.9 hPa | 2.03 mm | 0 m/s | - | - |
| 1778014601 | 14.44° C | 97% | 996 hPa | 1.78 mm | 1.34 m/s, 183° | - | - |
| 1778013700 | 14.44° C | 96% | 996.4 hPa | 1.27 mm | 0 m/s | - | - |
| 1778012799 | 15° C | 95% | 996.3 hPa | 1.02 mm | 0.45 m/s, 154° | - | - |
| 1778010999 | 15.56° C | 91% | 996.1 hPa | 0 mm | 0.45 m/s, 135° | - | - |
| 1778010100 | 15.56° C | 89% | 995.9 hPa | 0 mm | 0 m/s | - | - |
| 1778009200 | 15.56° C | 88% | 995.6 hPa | 0 mm | 0.89 m/s, 148° | - | - |
| 1778008299 | 16.11° C | 86% | 995.5 hPa | 0 mm | 0.89 m/s, 220° | - | - |
| 1778007399 | 16.11° C | 86% | 995.3 hPa | 0 mm | 0 m/s | - | - |
| 1778006500 | 16.67° C | 84% | 995.6 hPa | 0 mm | 1.79 m/s, 261° | - | - |
| 1778005599 | 17.22° C | 81% | 995.6 hPa | 0 mm | 1.34 m/s, 174° | - | - |
| 1778003799 | 17.22° C | 76% | 996 hPa | 0 mm | 0.45 m/s, 184° | - | - |
* Rain latest hour (hover to see other rain measurements)
** Current wind speed in m/s (hover to see current wind gust speed)